createdAt,value
2018-09-21T00:01:06.538Z,62.41
2018-09-21T00:02:06.494Z,62.41
2018-09-21T00:04:20.801Z,62.70
2018-09-21T00:04:59.774Z,62.80
2018-09-21T00:06:53.113Z,62.70
2018-09-21T00:07:53.060Z,62.99
2018-09-21T00:09:46.385Z,62.99
2018-09-21T00:10:46.349Z,62.90
2018-09-21T00:12:39.676Z,62.60
2018-09-21T00:13:39.626Z,63.09
2018-09-21T00:15:32.937Z,63.28
2018-09-21T00:16:32.910Z,63.44
2018-09-21T00:18:26.231Z,63.47
2018-09-21T00:19:26.191Z,63.28
2018-09-21T00:21:19.506Z,63.18
2018-09-21T00:22:19.479Z,63.82
2018-09-21T00:24:12.802Z,62.99
2018-09-21T00:25:12.761Z,64.02
2018-09-21T00:27:06.077Z,63.82
2018-09-21T00:28:06.031Z,63.82
2018-09-21T00:29:59.347Z,64.12
2018-09-21T00:30:59.320Z,63.92
2018-09-21T00:32:52.635Z,63.92
2018-09-21T00:33:52.600Z,64.02
2018-09-21T00:35:45.907Z,63.85
2018-09-21T00:36:45.875Z,64.15
2018-09-21T00:38:39.205Z,64.31
2018-09-21T00:39:39.157Z,64.34
2018-09-21T00:41:32.481Z,64.25
2018-09-21T00:42:32.445Z,64.12
2018-09-21T00:44:25.762Z,64.02
2018-09-21T00:45:25.731Z,64.15
2018-09-21T00:47:19.052Z,64.53
2018-09-21T00:48:19.004Z,64.31
2018-09-21T00:50:12.323Z,63.92
2018-09-21T00:51:12.286Z,64.89
2018-09-21T00:53:05.618Z,64.89
2018-09-21T00:54:05.571Z,64.21
2018-09-21T00:55:58.876Z,64.89
2018-09-21T00:56:58.841Z,65.27
2018-09-21T00:58:52.167Z,64.69
2018-09-21T00:59:52.128Z,65.37
2018-09-21T01:01:45.453Z,65.37
2018-09-21T01:02:45.420Z,64.98
2018-09-21T01:04:38.736Z,64.79
2018-09-21T01:05:38.693Z,65.17
2018-09-21T01:07:32.001Z,65.27
2018-09-21T01:08:31.973Z,65.27
2018-09-21T01:10:25.307Z,64.89
2018-09-21T01:11:25.254Z,64.98
2018-09-21T01:13:18.566Z,64.89
2018-09-21T01:14:18.541Z,65.08
2018-09-21T01:16:11.858Z,65.27
2018-09-21T01:17:11.811Z,65.37
2018-09-21T01:19:05.134Z,65.37
2018-09-21T01:20:05.097Z,65.94
2018-09-21T01:21:58.422Z,65.17
2018-09-21T01:22:58.387Z,64.98
2018-09-21T01:24:51.698Z,64.98
2018-09-21T01:25:51.667Z,65.08
2018-09-21T01:27:44.963Z,65.37
2018-09-21T01:28:44.952Z,65.46
2018-09-21T01:30:38.273Z,64.79
2018-09-21T01:31:38.219Z,65.56
2018-09-21T01:33:31.546Z,65.85
2018-09-21T01:34:31.505Z,65.75
2018-09-21T01:36:24.827Z,65.75
2018-09-21T01:37:24.790Z,65.66
2018-09-21T01:39:18.095Z,66.04
2018-09-21T01:40:18.064Z,65.85
2018-09-21T01:42:11.391Z,65.46
2018-09-21T01:43:11.344Z,65.75
2018-09-21T01:45:04.667Z,65.56
2018-09-21T01:46:04.624Z,65.46
2018-09-21T01:47:57.938Z,65.66
2018-09-21T01:48:57.903Z,65.56
2018-09-21T01:50:51.233Z,65.08
2018-09-21T01:51:51.192Z,65.37
2018-09-21T01:53:44.524Z,65.56
2018-09-21T01:54:44.469Z,65.94
2018-09-21T01:56:37.794Z,65.75
2018-09-21T01:57:37.755Z,64.98
2018-09-21T01:59:31.069Z,64.98
2018-09-21T02:00:31.025Z,65.37
2018-09-21T02:02:24.345Z,65.46
2018-09-21T02:03:24.309Z,64.79
2018-09-21T02:05:17.633Z,65.33
2018-09-21T02:06:17.603Z,64.69
2018-09-21T02:08:10.929Z,64.56
2018-09-21T02:09:10.884Z,64.69
2018-09-21T02:11:04.200Z,64.79
2018-09-21T02:12:04.155Z,64.79
2018-09-21T02:13:57.473Z,64.31
2018-09-21T02:14:57.436Z,64.02
2018-09-21T02:16:50.756Z,64.47
2018-09-21T02:17:50.721Z,64.02
2018-09-21T02:19:44.039Z,65.05
2018-09-21T02:20:44.009Z,64.31
2018-09-21T02:22:37.345Z,64.89
2018-09-21T02:23:37.279Z,64.79
2018-09-21T02:25:30.606Z,64.37
2018-09-21T02:26:30.556Z,64.08
2018-09-21T02:28:23.889Z,64.37
2018-09-21T02:29:23.839Z,64.12
2018-09-21T02:31:17.175Z,63.92
2018-09-21T02:32:17.126Z,64.02
2018-09-21T02:34:10.465Z,63.54
2018-09-21T02:35:10.417Z,63.44
2018-09-21T02:37:03.767Z,63.44
2018-09-21T02:38:03.720Z,63.06
2018-09-21T02:39:57.045Z,63.54
2018-09-21T02:40:57.011Z,62.57
2018-09-21T02:42:50.335Z,62.77
2018-09-21T02:43:50.294Z,63.15
2018-09-21T02:45:43.600Z,62.67
2018-09-21T02:46:43.571Z,62.57
2018-09-21T02:48:36.958Z,62.77
2018-09-21T02:49:36.845Z,62.38
2018-09-21T02:51:30.165Z,62.00
2018-09-21T02:52:30.131Z,62.12
2018-09-21T02:54:23.453Z,62.12
2018-09-21T02:55:23.403Z,61.25
2018-09-21T02:57:16.740Z,61.65
2018-09-21T02:58:16.697Z,61.25
2018-09-21T03:00:10.035Z,60.97
2018-09-21T03:01:09.972Z,60.20
2018-09-21T03:03:03.301Z,60.30
2018-09-21T03:04:03.246Z,59.55
2018-09-21T03:05:56.563Z,59.07
2018-09-21T03:06:56.533Z,59.17
2018-09-21T03:08:49.859Z,59.00
2018-09-21T03:09:49.809Z,58.72
2018-09-21T03:11:43.116Z,58.14
2018-09-21T03:12:43.090Z,58.14
2018-09-21T03:14:36.419Z,58.33
2018-09-21T03:15:36.370Z,57.94
2018-09-21T03:17:29.716Z,57.65
2018-09-21T03:18:29.651Z,57.75
2018-09-21T03:20:22.964Z,57.75
2018-09-21T03:21:22.931Z,57.49
2018-09-21T03:23:16.257Z,57.59
2018-09-21T03:24:16.218Z,57.20
2018-09-21T03:26:09.527Z,57.29
2018-09-21T03:27:09.510Z,56.62
2018-09-21T03:29:02.830Z,56.84
2018-09-21T03:30:02.789Z,57.20
2018-09-21T03:31:56.089Z,57.20
2018-09-21T03:32:56.057Z,56.91
2018-09-21T03:34:49.432Z,57.14
2018-09-21T03:35:49.343Z,57.23
2018-09-21T03:37:42.683Z,57.32
2018-09-21T03:38:42.628Z,57.14
2018-09-21T03:40:35.950Z,57.52
2018-09-21T03:41:35.923Z,57.23
2018-09-21T03:43:29.279Z,57.23
2018-09-21T03:44:29.204Z,57.04
2018-09-21T03:46:22.514Z,57.81
2018-09-21T03:47:22.489Z,58.00
2018-09-21T03:49:15.837Z,57.71
2018-09-21T03:50:15.768Z,58.19
2018-09-21T03:52:09.101Z,58.77
2018-09-21T03:53:09.074Z,59.16
2018-09-21T03:55:02.404Z,58.87
2018-09-21T03:56:02.349Z,58.87
2018-09-21T03:57:55.674Z,58.87
2018-09-21T03:58:55.640Z,58.87
2018-09-21T04:00:48.966Z,59.45
2018-09-21T04:01:48.926Z,59.83
2018-09-21T04:03:42.254Z,59.58
2018-09-21T04:04:42.218Z,59.48
2018-09-21T04:06:35.542Z,59.58
2018-09-21T04:07:35.505Z,59.67
2018-09-21T04:09:28.855Z,59.45
2018-09-21T04:10:28.843Z,59.64
2018-09-21T04:12:22.110Z,59.38
2018-09-21T04:13:22.065Z,59.48
2018-09-21T04:15:15.409Z,60.16
2018-09-21T04:16:15.360Z,59.86
2018-09-21T04:18:08.697Z,60.25
2018-09-21T04:19:08.674Z,61.12
2018-09-21T04:21:01.985Z,61.31
2018-09-21T04:22:01.937Z,61.02
2018-09-21T04:23:55.256Z,61.41
2018-09-21T04:24:55.222Z,61.51
2018-09-21T04:26:48.549Z,61.31
2018-09-21T04:27:48.524Z,61.12
2018-09-21T04:29:41.834Z,61.12
2018-09-21T04:30:41.796Z,61.22
2018-09-21T04:32:35.135Z,61.89
2018-09-21T04:33:35.081Z,62.08
2018-09-21T04:35:28.405Z,62.37
2018-09-21T04:36:28.370Z,62.47
2018-09-21T04:38:21.706Z,62.54
2018-09-21T04:39:21.669Z,62.28
2018-09-21T04:41:14.991Z,62.76
2018-09-21T04:42:14.941Z,62.66
2018-09-21T04:44:08.285Z,62.57
2018-09-21T04:45:08.227Z,62.95
2018-09-21T04:47:01.570Z,62.86
2018-09-21T04:48:01.506Z,62.66
2018-09-21T04:49:54.864Z,62.63
2018-09-21T04:50:54.837Z,62.25
2018-09-21T04:52:48.155Z,62.95
2018-09-21T04:53:48.107Z,63.05
2018-09-21T04:55:41.435Z,62.73
2018-09-21T04:56:41.401Z,63.05
2018-09-21T04:58:34.747Z,62.92
2018-09-21T04:59:34.690Z,62.92
2018-09-21T05:01:28.026Z,63.12
2018-09-21T05:02:27.975Z,63.12
2018-09-21T05:04:21.289Z,62.92
2018-09-21T05:05:21.251Z,63.02
2018-09-21T05:07:14.575Z,63.12
2018-09-21T05:08:14.541Z,62.92
2018-09-21T05:10:07.851Z,63.31
2018-09-21T05:11:07.821Z,63.31
2018-09-21T05:13:01.141Z,63.02
2018-09-21T05:14:01.102Z,63.50
2018-09-21T05:15:54.436Z,63.60
2018-09-21T05:16:54.398Z,63.40
2018-09-21T05:18:47.762Z,63.02
2018-09-21T05:19:47.757Z,62.92
2018-09-21T05:21:42.035Z,62.82
2018-09-21T05:22:42.008Z,63.12
2018-09-21T05:24:35.329Z,62.92
2018-09-21T05:25:35.296Z,62.82
2018-09-21T05:27:28.634Z,63.18
2018-09-21T05:28:28.569Z,63.47
2018-09-21T05:30:21.882Z,63.47
2018-09-21T05:31:21.853Z,63.67
2018-09-21T05:33:15.188Z,64.15
2018-09-21T05:34:15.150Z,64.05
2018-09-21T05:36:08.460Z,64.34
2018-09-21T05:37:08.422Z,64.05
2018-09-21T05:39:01.777Z,64.24
2018-09-21T05:40:01.724Z,64.15
2018-09-21T05:41:55.033Z,64.05
2018-09-21T05:42:55.002Z,64.15
2018-09-21T05:44:48.341Z,64.43
2018-09-21T05:45:48.291Z,65.11
2018-09-21T05:47:41.615Z,65.20
2018-09-21T05:48:41.574Z,65.40
2018-09-21T05:50:34.903Z,65.40
2018-09-21T05:51:34.872Z,65.01
2018-09-21T05:53:28.194Z,65.20
2018-09-21T05:54:28.149Z,65.30
2018-09-21T05:56:21.469Z,65.20
2018-09-21T05:57:21.462Z,65.20
2018-09-21T05:59:14.779Z,65.11
2018-09-21T06:00:14.720Z,65.30
2018-09-21T06:02:08.103Z,65.20
2018-09-21T06:03:08.015Z,65.30
2018-09-21T06:05:01.329Z,65.40
2018-09-21T06:06:01.289Z,65.20
2018-09-21T06:07:54.639Z,65.40
2018-09-21T06:08:54.565Z,65.30
2018-09-21T06:10:47.891Z,65.40
2018-09-21T06:11:47.855Z,65.40
2018-09-21T06:13:41.272Z,64.24
2018-09-21T06:14:41.140Z,64.53
2018-09-21T06:16:34.471Z,64.05
2018-09-21T06:17:34.428Z,63.37
2018-09-21T06:19:27.843Z,63.28
2018-09-21T06:20:27.721Z,62.89
2018-09-21T06:22:21.040Z,61.35
2018-09-21T06:23:21.006Z,62.34
2018-09-21T06:25:14.328Z,61.93
2018-09-21T06:26:14.296Z,61.44
2018-09-21T06:28:07.596Z,60.68
2018-09-21T06:29:07.571Z,60.28
2018-09-21T06:31:00.903Z,59.32
2018-09-21T06:32:00.962Z,59.64
2018-09-21T06:33:54.199Z,59.42
2018-09-21T06:34:54.149Z,59.03
2018-09-21T06:36:47.460Z,58.26
2018-09-21T06:37:47.434Z,57.59
2018-09-21T06:39:40.760Z,56.43
2018-09-21T06:40:40.723Z,56.14
2018-09-21T06:42:34.076Z,56.33
2018-09-21T06:43:33.997Z,56.24
2018-09-21T06:45:27.334Z,55.85
2018-09-21T06:46:27.281Z,55.76
2018-09-21T06:48:20.606Z,55.27
2018-09-21T06:49:20.554Z,55.85
2018-09-21T06:51:13.890Z,55.27
2018-09-21T06:52:13.848Z,55.59
2018-09-21T06:54:07.162Z,55.36
2018-09-21T06:55:07.129Z,55.76
2018-09-21T06:57:00.466Z,55.66
2018-09-21T06:58:00.430Z,55.36
2018-09-21T06:59:53.762Z,55.18
2018-09-21T07:00:53.721Z,55.18
2018-09-21T07:02:47.040Z,54.79
2018-09-21T07:03:46.996Z,54.60
2018-09-21T07:05:40.353Z,54.79
2018-09-21T07:06:40.283Z,54.21
2018-09-21T07:08:33.625Z,54.60
2018-09-21T07:09:33.585Z,54.50
2018-09-21T07:11:26.877Z,54.50
2018-09-21T07:12:26.850Z,54.60
2018-09-21T07:14:20.180Z,54.40
2018-09-21T07:15:20.126Z,54.88
2018-09-21T07:17:13.458Z,54.88
2018-09-21T07:18:13.412Z,54.79
2018-09-21T07:20:06.717Z,54.24
2018-09-21T07:21:06.701Z,53.95
2018-09-21T07:23:00.051Z,54.91
2018-09-21T07:23:59.972Z,54.14
2018-09-21T07:25:53.311Z,54.14
2018-09-21T07:26:53.262Z,54.53
2018-09-21T07:28:46.573Z,54.88
2018-09-21T07:29:46.548Z,54.50
2018-09-21T07:31:39.879Z,54.79
2018-09-21T07:32:39.823Z,54.50
2018-09-21T07:34:33.147Z,54.62
2018-09-21T07:35:33.128Z,54.69
2018-09-21T07:37:26.504Z,54.31
2018-09-21T07:38:26.393Z,54.43
2018-09-21T07:40:19.708Z,54.98
2018-09-21T07:41:19.670Z,54.50
2018-09-21T07:43:13.048Z,55.08
2018-09-21T07:44:12.964Z,55.27
2018-09-21T07:46:06.283Z,55.18
2018-09-21T07:47:06.248Z,55.46
2018-09-21T07:48:59.606Z,55.27
2018-09-21T07:49:59.518Z,55.46
2018-09-21T07:51:52.850Z,55.46
2018-09-21T07:52:52.810Z,55.36
2018-09-21T07:54:46.117Z,55.94
2018-09-21T07:55:46.092Z,55.66
2018-09-21T07:57:39.423Z,55.36
2018-09-21T07:58:39.387Z,55.76
2018-09-21T08:00:32.698Z,55.76
2018-09-21T08:01:32.665Z,56.04
2018-09-21T08:03:25.998Z,55.94
2018-09-21T08:04:25.953Z,55.85
2018-09-21T08:06:19.288Z,55.56
2018-09-21T08:07:19.304Z,55.94
2018-09-21T08:09:12.570Z,55.66
2018-09-21T08:10:12.519Z,55.94
2018-09-21T08:12:05.860Z,55.76
2018-09-21T08:13:05.814Z,55.66
2018-09-21T08:14:59.129Z,55.94
2018-09-21T08:15:59.099Z,55.94
2018-09-21T08:17:52.429Z,55.94
2018-09-21T08:18:52.384Z,55.94
2018-09-21T08:20:45.700Z,56.56
2018-09-21T08:21:45.659Z,56.07
2018-09-21T08:23:38.995Z,56.43
2018-09-21T08:24:38.935Z,56.07
2018-09-21T08:26:32.291Z,56.07
2018-09-21T08:27:32.226Z,55.98
2018-09-21T08:29:25.556Z,55.88
2018-09-21T08:30:25.508Z,55.78
2018-09-21T08:32:18.840Z,56.46
2018-09-21T08:33:18.874Z,56.84
2018-09-21T08:35:12.101Z,57.81
2018-09-21T08:36:12.081Z,59.64
2018-09-21T08:38:05.407Z,61.74
2018-09-21T08:39:05.363Z,61.54
2018-09-21T08:40:58.678Z,62.76
2018-09-21T08:41:58.640Z,64.40
2018-09-21T08:43:51.971Z,66.24
2018-09-21T08:44:51.918Z,67.68
2018-09-21T08:46:45.252Z,69.77
2018-09-21T08:47:45.208Z,70.25
2018-09-21T08:49:38.545Z,73.30
2018-09-21T08:50:38.502Z,78.85
2018-09-21T08:52:31.808Z,83.73
2018-09-21T08:53:31.785Z,85.03
2018-09-21T08:55:25.113Z,87.01
2018-09-21T08:56:25.064Z,87.87
2018-09-21T08:58:18.402Z,88.21
2018-09-21T08:59:18.350Z,89.84
2018-09-21T09:01:11.664Z,90.56
2018-09-21T09:02:11.618Z,92.10
2018-09-21T09:04:04.943Z,92.24
2018-09-21T09:05:04.897Z,93.11
2018-09-21T09:06:58.201Z,92.10
2018-09-21T09:07:58.161Z,93.26
2018-09-21T09:09:51.478Z,95.03
2018-09-21T09:10:51.433Z,95.51
2018-09-21T09:12:44.743Z,95.41
2018-09-21T09:13:44.702Z,95.46
2018-09-21T09:15:38.034Z,94.69
2018-09-21T09:16:37.981Z,96.22
2018-09-21T09:18:31.288Z,98.62
2018-09-21T09:19:31.247Z,99.00
2018-09-21T09:21:24.568Z,98.66
2018-09-21T09:22:24.521Z,99.99
2018-09-21T09:24:17.828Z,99.99
2018-09-21T09:25:17.794Z,99.99
2018-09-21T09:27:11.108Z,99.99
2018-09-21T09:28:11.065Z,99.99
2018-09-21T09:30:04.448Z,99.99
2018-09-21T09:31:04.337Z,99.99
2018-09-21T09:32:57.649Z,99.99
2018-09-21T09:33:57.602Z,99.99
2018-09-21T09:35:50.907Z,99.99
2018-09-21T09:36:50.889Z,99.99
2018-09-21T09:38:44.170Z,98.71
2018-09-21T09:39:44.138Z,98.43
2018-09-21T09:41:37.451Z,98.00
2018-09-21T09:42:37.486Z,99.19
2018-09-21T09:44:30.732Z,97.95
2018-09-21T09:45:30.677Z,98.81
2018-09-21T09:47:23.975Z,99.00
2018-09-21T09:48:23.996Z,97.85
2018-09-21T09:50:17.265Z,97.18
2018-09-21T09:51:17.231Z,97.18
2018-09-21T09:53:10.545Z,95.84
2018-09-21T09:54:10.484Z,96.70
2018-09-21T09:56:03.810Z,94.79
2018-09-21T09:57:03.761Z,92.40
2018-09-21T09:58:57.069Z,92.11
2018-09-21T09:59:57.045Z,91.83
2018-09-21T10:01:50.365Z,92.21
2018-09-21T10:02:50.330Z,90.58
2018-09-21T10:04:43.611Z,90.39
2018-09-21T10:05:43.594Z,91.73
2018-09-21T10:07:36.897Z,92.40
2018-09-21T10:08:36.845Z,92.97
2018-09-21T10:10:30.211Z,92.97
2018-09-21T10:11:30.113Z,93.26
2018-09-21T10:13:23.443Z,91.83
2018-09-21T10:14:23.393Z,91.73
2018-09-21T10:16:16.756Z,91.16
2018-09-21T10:17:16.666Z,91.35
2018-09-21T10:19:09.961Z,90.77
2018-09-21T10:20:09.934Z,91.25
2018-09-21T10:22:02.746Z,91.25
2018-09-21T10:23:02.704Z,91.53
2018-09-21T10:24:56.002Z,91.73
2018-09-21T10:25:55.958Z,91.63
2018-09-21T10:27:49.360Z,90.01
2018-09-21T10:28:49.390Z,89.91
2018-09-21T10:30:42.521Z,91.16
2018-09-21T10:31:42.498Z,90.58
2018-09-21T10:33:36.020Z,89.15
2018-09-21T10:34:35.859Z,88.29
2018-09-21T10:36:29.158Z,89.34
2018-09-21T10:37:29.046Z,89.15
2018-09-21T10:39:22.545Z,88.95
2018-09-21T10:40:22.356Z,88.29
2018-09-21T10:42:15.636Z,89.09
2018-09-21T10:43:15.665Z,87.95
2018-09-21T10:45:08.887Z,88.09
2018-09-21T10:46:08.857Z,88.43
2018-09-21T10:48:02.175Z,88.52
2018-09-21T10:49:02.117Z,88.04
2018-09-21T10:50:55.446Z,88.23
2018-09-21T10:51:55.395Z,87.56
2018-09-21T10:53:48.231Z,87.08
2018-09-21T10:54:48.161Z,87.56
2018-09-21T10:56:41.467Z,87.70
2018-09-21T10:57:41.431Z,88.47
2018-09-21T10:59:34.751Z,87.13
2018-09-21T11:00:34.744Z,87.13
2018-09-21T11:02:28.002Z,87.32
2018-09-21T11:03:27.993Z,87.41
2018-09-21T11:05:21.292Z,86.27
2018-09-21T11:06:21.248Z,85.98
2018-09-21T11:08:14.591Z,85.21
2018-09-21T11:09:14.521Z,86.02
2018-09-21T11:11:07.828Z,85.35
2018-09-21T11:12:07.800Z,85.35
2018-09-21T11:14:01.116Z,85.54
2018-09-21T11:15:01.078Z,85.45
2018-09-21T11:16:54.370Z,85.21
2018-09-21T11:17:54.336Z,84.82
2018-09-21T11:19:47.653Z,84.34
2018-09-21T11:20:47.610Z,84.44
2018-09-21T11:22:40.924Z,83.58
2018-09-21T11:23:40.882Z,83.29
2018-09-21T11:25:34.193Z,83.23
2018-09-21T11:26:34.147Z,82.94
2018-09-21T11:28:27.474Z,82.75
2018-09-21T11:29:27.428Z,82.56
2018-09-21T11:31:20.769Z,81.07
2018-09-21T11:32:20.704Z,80.91
2018-09-21T11:34:14.019Z,78.45
2018-09-21T11:35:13.980Z,78.30
2018-09-21T11:37:07.304Z,75.59
2018-09-21T11:38:07.259Z,73.86
2018-09-21T11:40:00.621Z,72.74
2018-09-21T11:41:00.595Z,70.24
2018-09-21T11:42:53.834Z,70.68
2018-09-21T11:43:53.816Z,71.84
2018-09-21T11:45:47.161Z,69.82
2018-09-21T11:46:47.161Z,70.92
2018-09-21T11:48:40.418Z,70.30
2018-09-21T11:49:40.382Z,69.73
2018-09-21T11:51:33.708Z,70.30
2018-09-21T11:52:33.668Z,69.69
2018-09-21T11:54:26.973Z,73.02
2018-09-21T11:55:26.944Z,73.60
2018-09-21T11:57:20.262Z,73.69
2018-09-21T11:58:20.221Z,73.46
2018-09-21T12:00:13.538Z,75.10
2018-09-21T12:01:13.499Z,74.81
2018-09-21T12:03:06.824Z,77.40
2018-09-21T12:04:06.774Z,79.09
2018-09-21T12:06:00.107Z,82.74
2018-09-21T12:07:00.056Z,83.08
2018-09-21T12:08:53.385Z,83.18
2018-09-21T12:09:53.325Z,82.12
2018-09-21T12:11:46.643Z,83.56
2018-09-21T12:12:46.604Z,81.84
2018-09-21T12:14:39.909Z,80.30
2018-09-21T12:15:39.885Z,80.87
2018-09-21T12:17:33.205Z,77.90
2018-09-21T12:18:33.145Z,75.40
2018-09-21T12:20:26.464Z,74.73
2018-09-21T12:21:26.424Z,75.79
2018-09-21T12:23:19.764Z,75.08
2018-09-21T12:24:19.713Z,74.73
2018-09-21T12:26:13.038Z,74.79
2018-09-21T12:27:12.996Z,75.75
2018-09-21T12:29:06.321Z,74.98
2018-09-21T12:30:06.271Z,74.98
2018-09-21T12:31:59.598Z,75.08
2018-09-21T12:32:59.546Z,75.02
2018-09-21T12:34:52.850Z,74.83
2018-09-21T12:35:52.877Z,74.98
2018-09-21T12:37:46.176Z,73.16
2018-09-21T12:38:46.149Z,73.07
2018-09-21T12:40:39.415Z,74.12
2018-09-21T12:41:39.375Z,74.02
2018-09-21T12:43:32.708Z,73.74
2018-09-21T12:44:32.769Z,74.02
2018-09-21T12:46:25.959Z,74.31
2018-09-21T12:47:25.933Z,74.22
2018-09-21T12:49:19.258Z,73.35
2018-09-21T12:50:19.270Z,73.35
2018-09-21T12:52:12.515Z,73.83
2018-09-21T12:53:12.468Z,73.45
2018-09-21T12:55:05.803Z,72.97
2018-09-21T12:56:05.749Z,72.97
2018-09-21T12:57:59.144Z,72.49
2018-09-21T12:58:59.028Z,71.15
2018-09-21T13:00:52.359Z,72.01
2018-09-21T13:01:52.323Z,72.49
2018-09-21T13:03:45.632Z,71.34
2018-09-21T13:04:45.593Z,71.15
2018-09-21T13:06:38.926Z,70.86
2018-09-21T13:07:38.872Z,71.05
2018-09-21T13:09:32.197Z,71.05
2018-09-21T13:10:32.143Z,70.29
2018-09-21T13:12:25.459Z,71.25
2018-09-21T13:13:25.423Z,70.99
2018-09-21T13:15:18.739Z,70.57
2018-09-21T13:16:18.694Z,71.09
2018-09-21T13:18:11.996Z,67.60
2018-09-21T13:19:11.971Z,67.50
2018-09-21T13:21:05.283Z,68.18
2018-09-21T13:22:05.244Z,66.35
2018-09-21T13:23:58.577Z,66.45
2018-09-21T13:24:58.551Z,67.02
2018-09-21T13:26:51.865Z,65.30
2018-09-21T13:27:51.801Z,64.53
2018-09-21T13:29:45.118Z,64.25
2018-09-21T13:30:45.070Z,64.34
2018-09-21T13:32:38.374Z,64.63
2018-09-21T13:33:38.359Z,62.90
2018-09-21T13:35:31.673Z,63.67
2018-09-21T13:36:31.619Z,63.38
2018-09-21T13:38:24.917Z,63.09
2018-09-21T13:39:24.887Z,62.62
2018-09-21T13:41:18.219Z,62.52
2018-09-21T13:42:18.184Z,62.52
2018-09-21T13:44:11.483Z,61.66
2018-09-21T13:45:11.443Z,61.46
2018-09-21T13:47:04.808Z,62.04
2018-09-21T13:48:04.724Z,61.46
2018-09-21T13:49:58.033Z,62.52
2018-09-21T13:50:57.992Z,62.71
2018-09-21T13:52:51.327Z,63.57
2018-09-21T13:53:51.264Z,63.38
2018-09-21T13:55:44.614Z,63.76
2018-09-21T13:56:44.558Z,63.76
2018-09-21T13:58:37.888Z,63.76
2018-09-21T13:59:37.840Z,63.57
2018-09-21T14:01:31.163Z,63.57
2018-09-21T14:02:31.119Z,64.63
2018-09-21T14:04:24.434Z,64.82
2018-09-21T14:05:24.407Z,64.72
2018-09-21T14:07:17.709Z,65.11
2018-09-21T14:08:17.659Z,65.11
2018-09-21T14:10:10.966Z,65.78
2018-09-21T14:11:10.932Z,66.74
2018-09-21T14:13:04.244Z,66.74
2018-09-21T14:14:04.199Z,66.35
2018-09-21T14:15:57.521Z,65.97
2018-09-21T14:16:57.480Z,65.11
2018-09-21T14:18:50.791Z,64.63
2018-09-21T14:19:50.749Z,64.72
2018-09-21T14:21:44.070Z,63.86
2018-09-21T14:22:44.045Z,63.86
2018-09-21T14:24:37.350Z,64.05
2018-09-21T14:25:37.302Z,64.34
2018-09-21T14:27:30.617Z,63.76
2018-09-21T14:28:30.577Z,64.05
2018-09-21T14:30:23.875Z,63.38
2018-09-21T14:31:23.854Z,63.57
2018-09-21T14:33:18.783Z,63.00
2018-09-21T14:34:17.127Z,62.62
2018-09-21T14:36:10.452Z,62.71
2018-09-21T14:37:10.410Z,61.88
2018-09-21T14:39:03.730Z,61.40
2018-09-21T14:40:03.693Z,59.29
2018-09-21T14:41:56.985Z,58.71
2018-09-21T14:42:56.966Z,56.70
2018-09-21T14:44:50.287Z,53.36
2018-09-21T14:45:50.246Z,52.79
2018-09-21T14:47:43.592Z,52.34
2018-09-21T14:48:43.520Z,51.18
2018-09-21T14:50:36.910Z,49.10
2018-09-21T14:51:36.795Z,48.02
2018-09-21T14:53:30.132Z,47.63
2018-09-21T14:54:30.079Z,47.25
2018-09-21T14:56:23.391Z,47.63
2018-09-21T14:57:23.357Z,47.15
2018-09-21T14:59:16.668Z,47.27
2018-09-21T15:00:16.633Z,46.50
2018-09-21T15:02:09.946Z,46.38
2018-09-21T15:03:09.907Z,46.59
2018-09-21T15:05:03.237Z,46.31
2018-09-21T15:06:03.198Z,45.25
2018-09-21T15:07:56.511Z,44.87
2018-09-21T15:08:56.481Z,45.45
2018-09-21T15:10:49.793Z,45.06
2018-09-21T15:11:49.750Z,45.15
2018-09-21T15:13:43.064Z,45.92
2018-09-21T15:14:43.033Z,45.35
2018-09-21T15:16:36.395Z,46.21
2018-09-21T15:17:36.312Z,46.79
2018-09-21T15:19:29.632Z,45.32
2018-09-21T15:20:29.607Z,46.50
2018-09-21T15:22:22.984Z,46.89
2018-09-21T15:23:22.873Z,46.50
2018-09-21T15:25:16.196Z,46.69
2018-09-21T15:26:16.147Z,46.31
2018-09-21T15:28:09.461Z,47.46
2018-09-21T15:29:09.429Z,46.21
2018-09-21T15:31:02.778Z,46.98
2018-09-21T15:32:02.714Z,47.49
2018-09-21T15:33:56.028Z,46.91
2018-09-21T15:34:55.987Z,46.50
2018-09-21T15:36:49.315Z,46.79
2018-09-21T15:37:49.283Z,46.41
2018-09-21T15:39:42.677Z,47.27
2018-09-21T15:40:42.563Z,47.17
2018-09-21T15:42:35.869Z,46.50
2018-09-21T15:43:35.891Z,46.98
2018-09-21T15:45:29.148Z,46.79
2018-09-21T15:46:29.110Z,46.79
2018-09-21T15:48:22.439Z,46.31
2018-09-21T15:49:22.410Z,46.69
2018-09-21T15:51:15.766Z,46.41
2018-09-21T15:52:15.732Z,46.69
2018-09-21T15:54:09.039Z,46.02
2018-09-21T15:55:09.010Z,46.50
2018-09-21T15:57:02.344Z,45.54
2018-09-21T15:58:02.296Z,46.12
2018-09-21T15:59:55.601Z,45.54
2018-09-21T16:00:55.594Z,46.19
2018-09-21T16:02:48.989Z,46.77
2018-09-21T16:03:48.842Z,46.38
2018-09-21T16:05:42.173Z,47.34
2018-09-21T16:06:42.140Z,47.41
2018-09-21T16:08:35.455Z,47.80
2018-09-21T16:09:35.406Z,47.32
2018-09-21T16:11:28.731Z,47.41
2018-09-21T16:12:28.690Z,47.71
2018-09-21T16:14:22.010Z,48.38
2018-09-21T16:15:21.950Z,48.38
2018-09-21T16:17:15.283Z,48.85
2018-09-21T16:18:15.236Z,48.95
2018-09-21T16:20:09.399Z,48.85
2018-09-21T16:21:09.355Z,48.38
2018-09-21T16:23:02.689Z,49.41
2018-09-21T16:24:02.649Z,49.43
2018-09-21T16:25:55.975Z,49.98
2018-09-21T16:26:55.943Z,49.21
2018-09-21T16:28:49.289Z,49.33
2018-09-21T16:29:49.246Z,49.15
2018-09-21T16:31:42.590Z,48.07
2018-09-21T16:32:42.540Z,48.54
2018-09-21T16:34:35.854Z,47.97
2018-09-21T16:35:35.805Z,48.44
2018-09-21T16:37:29.136Z,48.25
2018-09-21T16:38:29.086Z,47.97
2018-09-21T16:40:22.398Z,48.35
2018-09-21T16:41:22.368Z,48.35
2018-09-21T16:43:16.690Z,47.68
2018-09-21T16:44:16.641Z,47.39
2018-09-21T16:46:10.025Z,46.81
2018-09-21T16:47:09.911Z,47.10
2018-09-21T16:49:03.232Z,45.86
2018-09-21T16:50:03.189Z,45.00
2018-09-21T16:51:56.504Z,44.70
2018-09-21T16:52:56.458Z,45.37
2018-09-21T16:54:49.796Z,44.20
2018-09-21T16:55:49.750Z,43.24
2018-09-21T16:57:43.124Z,43.91
2018-09-21T16:58:43.112Z,44.49
2018-09-21T17:00:36.326Z,44.59
2018-09-21T17:01:36.300Z,44.30
2018-09-21T17:03:29.617Z,44.49
2018-09-21T17:04:29.659Z,45.07
2018-09-21T17:06:22.891Z,44.97
2018-09-21T17:07:22.847Z,45.74
2018-09-21T17:09:16.161Z,46.58
2018-09-21T17:10:16.121Z,46.86
2018-09-21T17:12:09.427Z,47.53
2018-09-21T17:13:09.396Z,47.44
2018-09-21T17:15:02.716Z,47.25
2018-09-21T17:16:02.670Z,47.44
2018-09-21T17:17:55.983Z,47.53
2018-09-21T17:18:55.947Z,48.02
2018-09-21T17:20:49.274Z,48.11
2018-09-21T17:21:49.221Z,48.59
2018-09-21T17:23:42.553Z,48.69
2018-09-21T17:24:42.504Z,48.97
2018-09-21T17:26:35.839Z,49.74
2018-09-21T17:27:35.783Z,49.91
2018-09-21T17:29:29.102Z,50.10
2018-09-21T17:30:29.056Z,50.29
2018-09-21T17:32:22.373Z,50.58
2018-09-21T17:33:22.334Z,50.38
2018-09-21T17:35:15.650Z,50.20
2018-09-21T17:36:15.603Z,50.48
2018-09-21T17:38:08.907Z,50.87
2018-09-21T17:39:08.867Z,50.58
2018-09-21T17:41:02.199Z,51.54
2018-09-21T17:42:02.158Z,51.54
2018-09-21T17:43:55.467Z,51.15
2018-09-21T17:44:55.427Z,51.15
2018-09-21T17:46:48.744Z,51.73
2018-09-21T17:47:48.702Z,52.11
2018-09-21T17:49:41.994Z,52.30
2018-09-21T17:50:41.977Z,52.11
2018-09-21T17:52:35.354Z,52.59
2018-09-21T17:53:35.244Z,52.66
2018-09-21T17:55:28.564Z,52.40
2018-09-21T17:56:28.517Z,52.37
2018-09-21T17:58:21.843Z,52.66
2018-09-21T17:59:21.803Z,52.95
2018-09-21T18:01:15.132Z,53.52
2018-09-21T18:02:15.077Z,53.91
2018-09-21T18:04:08.378Z,53.52
2018-09-21T18:05:08.345Z,53.14
2018-09-21T18:07:01.665Z,53.62
2018-09-21T18:08:01.628Z,53.62
2018-09-21T18:09:54.932Z,53.71
2018-09-21T18:10:54.910Z,54.19
2018-09-21T18:12:48.239Z,54.28
2018-09-21T18:13:48.174Z,54.19
2018-09-21T18:15:41.484Z,54.48
2018-09-21T18:16:41.459Z,54.57
2018-09-21T18:18:34.800Z,55.15
2018-09-21T18:19:34.753Z,55.05
2018-09-21T18:21:28.091Z,55.15
2018-09-21T18:22:28.023Z,55.34
2018-09-21T18:24:21.359Z,54.96
2018-09-21T18:25:21.290Z,55.34
2018-09-21T18:27:14.619Z,55.44
2018-09-21T18:28:14.570Z,56.20
2018-09-21T18:30:07.870Z,55.88
2018-09-21T18:31:07.835Z,56.17
2018-09-21T18:33:01.164Z,55.79
2018-09-21T18:34:01.120Z,55.63
2018-09-21T18:35:54.420Z,55.88